createdAt,value
2018-07-19T00:01:01.807Z,20.13
2018-07-19T00:03:06.590Z,20.22
2018-07-19T00:05:11.245Z,20.22
2018-07-19T00:07:15.876Z,20.24
2018-07-19T00:09:20.572Z,20.23
2018-07-19T00:11:25.266Z,20.19
2018-07-19T00:13:29.972Z,20.17
2018-07-19T00:15:34.622Z,20.14
2018-07-19T00:17:39.384Z,20.11
2018-07-19T00:19:43.666Z,19.98
2018-07-19T00:21:48.380Z,20.07
2018-07-19T00:23:53.167Z,20.06
2018-07-19T00:25:58.329Z,20.24
2018-07-19T00:28:03.107Z,20.29
2018-07-19T00:30:07.966Z,20.29
2018-07-19T00:32:12.595Z,20.26
2018-07-19T00:34:17.283Z,20.22
2018-07-19T00:36:22.286Z,20.15
2018-07-19T00:38:27.140Z,20.11
2018-07-19T00:40:31.910Z,20.10
2018-07-19T00:42:36.609Z,20.08
2018-07-19T00:44:41.390Z,20.05
2018-07-19T00:46:46.911Z,19.99
2018-07-19T00:48:51.578Z,19.94
2018-07-19T00:50:56.249Z,19.90
2018-07-19T00:53:00.902Z,19.92
2018-07-19T00:55:05.680Z,19.88
2018-07-19T00:57:10.370Z,19.88
2018-07-19T00:59:15.050Z,19.83
2018-07-19T01:01:19.743Z,19.82
2018-07-19T01:03:24.412Z,19.78
2018-07-19T01:05:29.098Z,19.68
2018-07-19T01:07:33.817Z,19.83
2018-07-19T01:09:38.477Z,20.00
2018-07-19T01:11:43.121Z,19.87
2018-07-19T01:13:47.813Z,19.71
2018-07-19T01:15:52.586Z,19.53
2018-07-19T01:17:57.344Z,19.40
2018-07-19T01:20:02.076Z,19.28
2018-07-19T01:22:06.828Z,19.19
2018-07-19T01:24:11.494Z,19.14
2018-07-19T01:26:16.174Z,19.00
2018-07-19T01:28:20.819Z,18.97
2018-07-19T01:30:25.564Z,18.93
2018-07-19T01:32:30.278Z,18.94
2018-07-19T01:34:34.969Z,18.91
2018-07-19T01:36:39.603Z,18.92
2018-07-19T01:38:44.317Z,18.92
2018-07-19T01:40:48.974Z,18.97
2018-07-19T01:42:53.761Z,18.93
2018-07-19T01:44:58.595Z,18.95
2018-07-19T01:47:03.369Z,18.93
2018-07-19T01:49:08.014Z,19.00
2018-07-19T01:51:12.716Z,19.02
2018-07-19T01:53:17.359Z,19.01
2018-07-19T01:55:22.023Z,18.99
2018-07-19T01:57:26.747Z,18.96
2018-07-19T01:59:31.380Z,19.01
2018-07-19T02:01:35.985Z,18.96
2018-07-19T02:03:40.709Z,18.92
2018-07-19T02:05:45.503Z,18.91
2018-07-19T02:07:50.197Z,18.91
2018-07-19T02:09:54.885Z,18.88
2018-07-19T02:11:59.688Z,18.88
2018-07-19T02:14:04.425Z,18.89
2018-07-19T02:16:09.066Z,18.89
2018-07-19T02:18:13.759Z,18.84
2018-07-19T02:20:18.411Z,18.81
2018-07-19T02:22:23.114Z,18.79
2018-07-19T02:24:27.803Z,18.74
2018-07-19T02:26:32.492Z,18.70
2018-07-19T02:28:37.321Z,18.64
2018-07-19T02:30:42.029Z,18.69
2018-07-19T02:32:46.703Z,18.68
2018-07-19T02:34:51.412Z,18.68
2018-07-19T02:36:56.073Z,18.63
2018-07-19T02:39:00.979Z,18.61
2018-07-19T02:41:05.689Z,18.59
2018-07-19T02:43:10.328Z,18.59
2018-07-19T02:45:15.056Z,18.66
2018-07-19T02:47:19.762Z,18.64
2018-07-19T02:49:24.442Z,18.63
2018-07-19T02:51:29.062Z,18.60
2018-07-19T02:53:33.690Z,18.58
2018-07-19T02:55:38.357Z,18.54
2018-07-19T02:57:43.025Z,18.49
2018-07-19T02:59:47.726Z,18.40
2018-07-19T03:01:52.365Z,18.46
2018-07-19T03:03:57.006Z,18.53
2018-07-19T03:06:01.679Z,18.49
2018-07-19T03:08:06.361Z,18.46
2018-07-19T03:10:11.154Z,18.45
2018-07-19T03:12:15.803Z,18.43
2018-07-19T03:14:20.529Z,18.43
2018-07-19T03:16:25.171Z,18.44
2018-07-19T03:18:29.821Z,18.40
2018-07-19T03:20:34.541Z,18.39
2018-07-19T03:22:39.378Z,18.33
2018-07-19T03:24:44.164Z,18.34
2018-07-19T03:26:48.871Z,18.31
2018-07-19T03:28:53.554Z,18.34
2018-07-19T03:30:58.287Z,18.36
2018-07-19T03:33:02.906Z,18.36
2018-07-19T03:35:07.540Z,18.30
2018-07-19T03:37:12.190Z,18.29
2018-07-19T03:39:16.852Z,18.28
2018-07-19T03:41:21.521Z,18.30
2018-07-19T03:43:26.182Z,18.33
2018-07-19T03:45:30.845Z,18.25
2018-07-19T03:47:35.496Z,18.26
2018-07-19T03:49:40.162Z,18.29
2018-07-19T03:51:44.854Z,18.29
2018-07-19T03:53:49.506Z,18.32
2018-07-19T03:55:53.849Z,18.30
2018-07-19T03:57:58.492Z,18.29
2018-07-19T04:00:03.171Z,18.28
2018-07-19T04:02:07.856Z,18.30
2018-07-19T04:04:12.502Z,18.22
2018-07-19T04:06:17.140Z,18.29
2018-07-19T04:08:21.771Z,18.27
2018-07-19T04:10:26.425Z,18.25
2018-07-19T04:12:31.073Z,18.26
2018-07-19T04:14:35.843Z,18.28
2018-07-19T04:16:40.560Z,18.29
2018-07-19T04:18:45.266Z,18.30
2018-07-19T04:20:50.029Z,18.27
2018-07-19T04:22:55.470Z,18.31
2018-07-19T04:25:00.200Z,18.34
2018-07-19T04:27:04.933Z,18.33
2018-07-19T04:29:09.823Z,18.33
2018-07-19T04:31:14.581Z,18.34
2018-07-19T04:33:19.312Z,18.40
2018-07-19T04:35:24.012Z,18.43
2018-07-19T04:37:30.478Z,18.42
2018-07-19T04:39:35.197Z,18.47
2018-07-19T04:41:39.885Z,18.50
2018-07-19T04:43:44.672Z,18.55
2018-07-19T04:45:49.311Z,18.61
2018-07-19T04:47:54.062Z,18.62
2018-07-19T04:49:59.865Z,18.69
2018-07-19T04:52:04.709Z,18.76
2018-07-19T04:54:09.383Z,18.81
2018-07-19T04:56:13.907Z,18.85
2018-07-19T04:58:18.705Z,18.89
2018-07-19T05:00:23.447Z,18.93
2018-07-19T05:02:28.116Z,19.00
2018-07-19T05:04:32.854Z,19.05
2018-07-19T05:06:37.830Z,19.13
2018-07-19T05:08:42.692Z,19.21
2018-07-19T05:10:47.774Z,19.40
2018-07-19T05:12:52.455Z,19.39
2018-07-19T05:14:57.373Z,19.56
2018-07-19T05:17:02.177Z,19.56
2018-07-19T05:19:07.033Z,19.61
2018-07-19T05:21:12.324Z,19.59
2018-07-19T05:23:17.124Z,19.64
2018-07-19T05:25:21.987Z,19.71
2018-07-19T05:27:26.657Z,19.74
2018-07-19T05:29:31.351Z,19.93
2018-07-19T05:31:37.123Z,19.97
2018-07-19T05:33:41.856Z,20.01
2018-07-19T05:35:47.093Z,20.15
2018-07-19T05:37:51.791Z,20.13
2018-07-19T05:39:57.034Z,20.24
2018-07-19T05:42:01.909Z,20.30
2018-07-19T05:44:07.088Z,20.36
2018-07-19T05:46:11.882Z,20.42
2018-07-19T05:48:16.828Z,20.48
2018-07-19T05:50:21.693Z,20.53
2018-07-19T05:52:26.569Z,20.60
2018-07-19T05:54:31.580Z,20.78
2018-07-19T05:56:36.880Z,20.77
2018-07-19T05:58:41.655Z,20.90
2018-07-19T06:00:46.430Z,21.13
2018-07-19T06:02:51.248Z,21.13
2018-07-19T06:04:56.100Z,21.19
2018-07-19T06:07:00.826Z,21.33
2018-07-19T06:09:09.159Z,21.35
2018-07-19T06:11:13.981Z,21.49
2018-07-19T06:13:19.296Z,21.54
2018-07-19T06:15:24.061Z,21.69
2018-07-19T06:17:28.928Z,21.94
2018-07-19T06:19:33.751Z,21.98
2018-07-19T06:21:38.501Z,21.75
2018-07-19T06:23:43.271Z,21.77
2018-07-19T06:25:48.100Z,21.90
2018-07-19T06:27:53.148Z,21.78
2018-07-19T06:29:58.350Z,21.93
2018-07-19T06:32:03.133Z,21.91
2018-07-19T06:34:07.913Z,21.96
2018-07-19T06:36:12.869Z,22.01
2018-07-19T06:38:17.846Z,21.92
2018-07-19T06:40:22.534Z,22.06
2018-07-19T06:42:27.300Z,22.11
2018-07-19T06:44:32.121Z,21.99
2018-07-19T06:46:36.976Z,22.03
2018-07-19T06:48:41.902Z,22.08
2018-07-19T06:50:46.758Z,22.04
2018-07-19T06:52:51.542Z,22.04
2018-07-19T06:54:56.310Z,22.06
2018-07-19T06:57:01.079Z,22.06
2018-07-19T06:59:05.837Z,21.99
2018-07-19T07:01:10.628Z,22.02
2018-07-19T07:03:15.478Z,22.36
2018-07-19T07:05:20.209Z,22.33
2018-07-19T07:07:25.003Z,22.24
2018-07-19T07:09:29.855Z,22.32
2018-07-19T07:11:34.792Z,22.37
2018-07-19T07:13:39.674Z,22.60
2018-07-19T07:15:44.508Z,22.65
2018-07-19T07:17:49.441Z,22.64
2018-07-19T07:19:54.284Z,22.89
2018-07-19T07:21:59.173Z,23.09
2018-07-19T07:24:04.027Z,23.36
2018-07-19T07:26:08.951Z,23.28
2018-07-19T07:28:13.877Z,23.22
2018-07-19T07:30:18.679Z,23.22
2018-07-19T07:32:23.516Z,23.28
2018-07-19T07:34:28.450Z,23.39
2018-07-19T07:36:33.330Z,23.39
2018-07-19T07:38:37.809Z,23.62
2018-07-19T07:40:42.695Z,23.68
2018-07-19T07:42:47.591Z,23.86
2018-07-19T07:44:52.439Z,23.76
2018-07-19T07:46:57.768Z,23.73
2018-07-19T07:49:02.573Z,23.73
2018-07-19T07:51:07.296Z,23.86
2018-07-19T07:53:12.052Z,23.88
2018-07-19T07:55:17.180Z,23.87
2018-07-19T07:57:21.957Z,24.02
2018-07-19T07:59:27.055Z,24.08
2018-07-19T08:01:31.876Z,24.40
2018-07-19T08:03:36.639Z,24.20
2018-07-19T08:05:41.408Z,24.45
2018-07-19T08:07:46.273Z,24.37
2018-07-19T08:09:51.234Z,24.20
2018-07-19T08:11:56.172Z,24.31
2018-07-19T08:14:01.006Z,24.24
2018-07-19T08:16:05.709Z,24.34
2018-07-19T08:18:10.510Z,24.28
2018-07-19T08:20:15.295Z,24.51
2018-07-19T08:22:20.032Z,24.51
2018-07-19T08:24:24.815Z,24.26
2018-07-19T08:26:29.623Z,24.19
2018-07-19T08:28:34.338Z,24.12
2018-07-19T08:30:39.223Z,24.17
2018-07-19T08:32:43.968Z,23.90
2018-07-19T08:34:48.819Z,23.84
2018-07-19T08:36:53.576Z,23.76
2018-07-19T08:38:58.388Z,23.82
2018-07-19T08:41:03.286Z,23.56
2018-07-19T08:43:07.850Z,23.91
2018-07-19T08:45:12.522Z,24.02
2018-07-19T08:47:17.250Z,24.09
2018-07-19T08:49:22.046Z,24.15
2018-07-19T08:51:26.928Z,24.11
2018-07-19T08:53:31.659Z,24.01
2018-07-19T08:55:36.468Z,24.08
2018-07-19T08:57:41.208Z,24.19
2018-07-19T08:59:45.913Z,24.16
2018-07-19T09:01:50.940Z,24.24
2018-07-19T09:03:55.404Z,24.17
2018-07-19T09:05:59.781Z,24.22
2018-07-19T09:08:04.584Z,24.55
2018-07-19T09:10:09.408Z,24.75
2018-07-19T09:12:14.468Z,24.75
2018-07-19T09:14:19.207Z,24.68
2018-07-19T09:18:37.694Z,25.01
2018-07-19T09:20:42.546Z,24.82
2018-07-19T09:22:47.302Z,24.87
2018-07-19T09:24:51.976Z,25.18
2018-07-19T09:26:56.736Z,25.23
2018-07-19T09:29:01.425Z,25.29
2018-07-19T09:31:06.228Z,25.23
2018-07-19T09:33:11.042Z,25.37
2018-07-19T09:35:15.817Z,25.42
2018-07-19T09:37:20.773Z,25.67
2018-07-19T09:39:25.709Z,25.41
2018-07-19T09:41:30.456Z,25.23
2018-07-19T09:43:35.302Z,25.41
2018-07-19T09:45:40.076Z,25.36
2018-07-19T09:47:44.776Z,25.21
2018-07-19T09:49:49.483Z,25.25
2018-07-19T09:51:54.310Z,25.36
2018-07-19T09:53:59.483Z,25.11
2018-07-19T09:56:04.179Z,25.43
2018-07-19T09:58:09.064Z,25.62
2018-07-19T10:00:18.229Z,25.78
2018-07-19T10:02:23.521Z,25.74
2018-07-19T10:04:29.473Z,25.93
2018-07-19T10:06:36.693Z,26.09
2018-07-19T10:08:41.517Z,26.24
2018-07-19T10:10:46.523Z,26.37
2018-07-19T10:12:51.544Z,26.51
2018-07-19T10:14:56.563Z,26.45
2018-07-19T10:17:01.675Z,26.39
2018-07-19T10:19:06.695Z,26.75
2018-07-19T10:21:11.592Z,26.68
2018-07-19T10:23:16.605Z,26.76
2018-07-19T10:25:21.635Z,26.84
2018-07-19T10:27:26.642Z,27.24
2018-07-19T10:29:32.605Z,27.37
2018-07-19T10:31:37.981Z,27.13
2018-07-19T10:33:43.235Z,27.46
2018-07-19T10:35:48.879Z,27.92
2018-07-19T10:37:54.178Z,27.55
2018-07-19T10:39:59.175Z,27.64
2018-07-19T10:42:04.774Z,27.40
2018-07-19T10:44:10.277Z,26.75
2018-07-19T10:46:15.919Z,27.16
2018-07-19T10:48:20.728Z,27.04
2018-07-19T10:50:26.656Z,26.53
2018-07-19T10:52:31.954Z,26.71
2018-07-19T10:54:36.840Z,26.75
2018-07-19T10:56:41.721Z,26.50
2018-07-19T10:58:46.570Z,26.46
2018-07-19T11:00:51.742Z,27.26
2018-07-19T11:02:56.607Z,27.65
2018-07-19T11:05:01.345Z,27.64
2018-07-19T11:07:06.583Z,27.50
2018-07-19T11:09:11.452Z,27.62
2018-07-19T11:11:16.508Z,27.17
2018-07-19T11:13:21.606Z,27.38
2018-07-19T11:15:26.495Z,27.30
2018-07-19T11:17:31.677Z,27.47
2018-07-19T11:19:36.616Z,27.41
2018-07-19T11:21:41.373Z,27.21
2018-07-19T11:23:46.922Z,27.30
2018-07-19T11:25:52.151Z,27.85
2018-07-19T11:27:56.925Z,27.63
2018-07-19T11:30:01.627Z,27.90
2018-07-19T11:32:06.976Z,28.15
2018-07-19T11:34:11.713Z,28.13
2018-07-19T11:36:16.994Z,28.07
2018-07-19T11:38:22.333Z,28.28
2018-07-19T11:40:28.189Z,28.41
2018-07-19T11:42:33.208Z,27.84
2018-07-19T11:44:38.244Z,28.08
2018-07-19T11:46:43.429Z,28.29
2018-07-19T11:48:48.946Z,28.19
2018-07-19T11:50:54.943Z,28.56
2018-07-19T11:52:59.894Z,28.20
2018-07-19T11:55:04.588Z,27.99
2018-07-19T11:57:09.703Z,27.93
2018-07-19T11:59:14.852Z,27.89
2018-07-19T12:01:20.166Z,28.26
2018-07-19T12:03:25.221Z,28.28
2018-07-19T12:05:30.010Z,28.47
2018-07-19T12:07:34.803Z,28.18
2018-07-19T12:09:39.442Z,28.12
2018-07-19T12:11:44.244Z,27.85
2018-07-19T12:13:49.098Z,27.79
2018-07-19T12:15:53.914Z,27.93
2018-07-19T12:17:58.591Z,27.82
2018-07-19T12:20:03.329Z,27.65
2018-07-19T12:22:08.049Z,27.36
2018-07-19T12:24:12.676Z,27.40
2018-07-19T12:26:17.325Z,27.31
2018-07-19T12:28:22.028Z,27.07
2018-07-19T12:30:26.682Z,27.16
2018-07-19T12:32:31.360Z,27.38
2018-07-19T12:34:36.405Z,27.35
2018-07-19T12:36:41.258Z,27.64
2018-07-19T12:38:46.021Z,27.30
2018-07-19T12:40:51.142Z,27.38
2018-07-19T12:42:55.922Z,27.05
2018-07-19T12:45:00.788Z,27.01
2018-07-19T12:47:06.192Z,26.54
2018-07-19T12:49:11.571Z,26.63
2018-07-19T12:51:16.377Z,26.62
2018-07-19T12:53:21.129Z,26.74
2018-07-19T12:55:26.602Z,26.79
2018-07-19T12:57:31.415Z,26.94
2018-07-19T12:59:36.414Z,27.24
2018-07-19T13:01:41.010Z,27.34
2018-07-19T13:03:45.595Z,27.32
2018-07-19T13:05:50.229Z,27.52
2018-07-19T13:07:54.889Z,27.70
2018-07-19T13:09:59.467Z,27.88
2018-07-19T13:12:04.145Z,28.07
2018-07-19T13:14:10.301Z,28.43
2018-07-19T13:16:15.674Z,28.42
2018-07-19T13:18:20.418Z,28.36
2018-07-19T13:20:24.696Z,28.22
2018-07-19T13:22:29.605Z,28.35
2018-07-19T13:24:34.400Z,28.19
2018-07-19T13:26:39.354Z,28.30
2018-07-19T13:28:44.126Z,28.37
2018-07-19T13:30:48.818Z,28.28
2018-07-19T13:32:53.447Z,28.59
2018-07-19T13:34:58.061Z,28.65
2018-07-19T13:37:03.292Z,28.64
2018-07-19T13:39:09.670Z,28.95
2018-07-19T13:41:15.300Z,29.08
2018-07-19T13:43:20.367Z,28.92
2018-07-19T13:45:25.675Z,28.92
2018-07-19T13:47:30.612Z,29.05
2018-07-19T13:49:35.326Z,29.52
2018-07-19T13:51:40.444Z,29.18
2018-07-19T13:54:19.673Z,28.82
2018-07-19T13:56:27.864Z,29.06
2018-07-19T13:58:33.243Z,29.08
2018-07-19T14:00:38.195Z,29.38
2018-07-19T14:02:43.737Z,28.99
2018-07-19T14:04:48.631Z,29.12
2018-07-19T14:06:53.624Z,29.35
2018-07-19T14:08:58.588Z,29.12
2018-07-19T14:11:03.369Z,29.13
2018-07-19T14:13:08.195Z,29.71
2018-07-19T14:15:13.488Z,29.45
2018-07-19T14:17:18.483Z,29.51
2018-07-19T14:19:23.485Z,29.50
2018-07-19T14:21:28.456Z,29.28
2018-07-19T14:23:33.486Z,29.67
2018-07-19T14:25:38.611Z,29.82
2018-07-19T14:27:43.711Z,29.63
2018-07-19T14:29:48.641Z,29.25
2018-07-19T14:31:53.592Z,29.24
2018-07-19T14:33:58.605Z,29.78
2018-07-19T14:36:03.587Z,29.89
2018-07-19T14:38:08.669Z,29.80
2018-07-19T14:40:13.394Z,29.40
2018-07-19T14:42:18.206Z,29.81
2018-07-19T14:44:23.407Z,29.56
2018-07-19T14:46:28.356Z,29.84
2018-07-19T14:48:33.267Z,29.57
2018-07-19T14:50:37.855Z,30.19
2018-07-19T14:52:43.003Z,29.88
2018-07-19T14:54:47.842Z,29.89
2018-07-19T14:56:52.928Z,29.92
2018-07-19T14:58:57.936Z,29.79
2018-07-19T15:01:02.753Z,29.82
2018-07-19T15:03:07.869Z,30.13
2018-07-19T15:05:12.973Z,29.89
2018-07-19T15:07:17.765Z,30.07
2018-07-19T15:09:22.396Z,29.85
2018-07-19T15:11:27.156Z,29.82
2018-07-19T15:13:31.900Z,29.71
2018-07-19T15:15:36.579Z,29.85
2018-07-19T15:17:41.875Z,29.90
2018-07-19T15:19:47.081Z,29.37
2018-07-19T15:21:51.823Z,29.27
2018-07-19T15:23:57.526Z,28.96
2018-07-19T15:26:02.223Z,29.04
2018-07-19T15:28:06.957Z,28.76
2018-07-19T15:30:11.972Z,28.78
2018-07-19T15:32:17.143Z,28.66
2018-07-19T15:34:23.265Z,28.50
2018-07-19T15:36:27.920Z,28.97
2018-07-19T15:38:32.940Z,29.20
2018-07-19T15:40:38.289Z,29.40
2018-07-19T15:42:44.317Z,29.59
2018-07-19T15:44:49.654Z,29.59
2018-07-19T15:46:55.648Z,30.07
2018-07-19T15:49:00.548Z,30.16
2018-07-19T15:51:08.021Z,29.97
2018-07-19T15:53:13.644Z,29.83
2018-07-19T15:55:19.487Z,29.66
2018-07-19T15:57:24.458Z,30.15
2018-07-19T15:59:29.556Z,29.99
2018-07-19T16:01:34.707Z,30.06
2018-07-19T16:03:39.540Z,29.96
2018-07-19T16:05:44.252Z,29.80
2018-07-19T16:07:48.889Z,29.72
2018-07-19T16:09:53.523Z,29.78
2018-07-19T16:11:58.217Z,29.73
2018-07-19T16:14:02.890Z,29.79
2018-07-19T16:16:07.705Z,29.40
2018-07-19T16:18:12.401Z,28.72
2018-07-19T16:20:17.117Z,29.42
2018-07-19T16:22:21.834Z,28.70
2018-07-19T16:24:26.551Z,28.30
2018-07-19T16:26:31.294Z,28.20
2018-07-19T16:28:36.031Z,28.15
2018-07-19T16:30:40.636Z,27.96
2018-07-19T16:32:45.344Z,28.19
2018-07-19T16:34:50.670Z,28.28
2018-07-19T16:36:55.388Z,28.02
2018-07-19T16:39:00.180Z,28.43
2018-07-19T16:41:04.981Z,28.49
2018-07-19T16:43:09.831Z,28.60
2018-07-19T16:45:14.739Z,28.64
2018-07-19T16:47:19.517Z,28.68
2018-07-19T16:49:24.588Z,28.75
2018-07-19T16:51:29.974Z,28.82
2018-07-19T16:53:34.719Z,28.88
2018-07-19T16:55:39.465Z,28.90
2018-07-19T16:57:44.346Z,28.92
2018-07-19T16:59:49.236Z,28.77
2018-07-19T17:01:54.068Z,28.59
2018-07-19T17:03:58.946Z,28.52
2018-07-19T17:06:03.749Z,28.31
2018-07-19T17:08:08.549Z,28.36
2018-07-19T17:10:13.374Z,28.21
2018-07-19T17:12:18.147Z,28.17
2018-07-19T17:14:23.187Z,28.19
2018-07-19T17:16:27.948Z,28.31
2018-07-19T17:18:32.668Z,28.56
2018-07-19T17:20:37.994Z,28.55
2018-07-19T17:22:42.905Z,28.69
2018-07-19T17:24:47.983Z,29.03
2018-07-19T17:26:53.023Z,29.44
2018-07-19T17:28:58.883Z,29.92
2018-07-19T17:31:03.914Z,30.38
2018-07-19T17:33:09.055Z,30.71
2018-07-19T17:35:13.840Z,31.02
2018-07-19T17:37:18.800Z,30.93
2018-07-19T17:39:23.818Z,30.95
2018-07-19T17:41:28.675Z,30.95
2018-07-19T17:43:33.562Z,31.25
2018-07-19T17:45:38.385Z,31.22
2018-07-19T17:47:43.784Z,30.99
2018-07-19T17:49:48.818Z,31.07
2018-07-19T17:51:54.907Z,30.95
2018-07-19T17:54:00.155Z,31.14
2018-07-19T17:56:05.159Z,31.19
2018-07-19T17:58:09.959Z,31.29
2018-07-19T18:00:14.681Z,31.54
2018-07-19T18:02:19.517Z,31.53
2018-07-19T18:04:25.616Z,31.39
2018-07-19T18:06:33.346Z,31.29
2018-07-19T18:08:40.869Z,31.15
2018-07-19T18:10:46.689Z,30.98
2018-07-19T18:12:52.770Z,30.97
2018-07-19T18:17:21.594Z,31.04
2018-07-19T18:19:26.911Z,30.71
2018-07-19T18:21:31.828Z,30.65
2018-07-19T18:23:36.903Z,29.99
2018-07-19T18:25:41.779Z,29.85
2018-07-19T18:27:46.729Z,29.65
2018-07-19T18:29:52.710Z,29.47
2018-07-19T18:31:57.711Z,29.19
2018-07-19T18:34:02.802Z,29.01
2018-07-19T18:36:07.627Z,28.62
2018-07-19T18:38:12.444Z,28.68
2018-07-19T18:40:17.415Z,28.37
2018-07-19T18:42:22.186Z,28.34
2018-07-19T18:44:26.904Z,28.17
2018-07-19T18:46:32.233Z,28.07
2018-07-19T18:48:37.440Z,27.93
2018-07-19T18:50:42.302Z,27.82
2018-07-19T18:53:03.190Z,27.73
2018-07-19T18:55:14.938Z,27.63
2018-07-19T18:57:20.690Z,27.57
2018-07-19T18:59:25.735Z,27.46
2018-07-19T19:01:30.835Z,26.93
2018-07-19T19:03:35.760Z,27.22
2018-07-19T19:05:41.463Z,27.15
2018-07-19T19:07:45.911Z,27.08
2018-07-19T19:09:50.665Z,27.00
2018-07-19T19:11:55.981Z,26.89
2018-07-19T19:14:00.839Z,26.75
2018-07-19T19:16:05.939Z,26.73
2018-07-19T19:18:10.759Z,26.65
2018-07-19T19:20:15.454Z,26.57
2018-07-19T19:22:20.272Z,26.50
2018-07-19T19:24:25.166Z,26.40
2018-07-19T19:26:30.429Z,26.32
2018-07-19T19:28:36.036Z,26.24
2018-07-19T19:30:41.064Z,26.12
2018-07-19T19:32:45.972Z,26.18
2018-07-19T19:34:50.478Z,26.26
2018-07-19T19:36:55.387Z,26.18
2018-07-19T19:39:00.503Z,26.06
2018-07-19T19:41:06.371Z,26.02
2018-07-19T19:43:11.627Z,25.99
2018-07-19T19:45:16.847Z,25.92
2018-07-19T19:47:22.172Z,26.06
2018-07-19T19:49:27.590Z,25.90
2018-07-19T19:51:32.428Z,25.82
2018-07-19T19:53:37.522Z,25.74
2018-07-19T19:55:43.320Z,25.92
2018-07-19T19:57:48.155Z,25.66
2018-07-19T19:59:53.051Z,25.84
2018-07-19T20:01:58.714Z,25.67
2018-07-19T20:04:04.723Z,25.48
2018-07-19T20:06:10.928Z,25.31
2018-07-19T20:08:15.869Z,25.51
2018-07-19T20:10:20.718Z,25.44
2018-07-19T20:12:25.615Z,25.34
2018-07-19T20:14:30.442Z,25.33
2018-07-19T20:16:35.142Z,25.15
2018-07-19T20:18:39.888Z,25.07
2018-07-19T20:20:44.608Z,25.12
2018-07-19T20:22:49.636Z,25.20
2018-07-19T20:24:54.356Z,25.22
2018-07-19T20:26:59.221Z,25.26
2018-07-19T20:29:03.750Z,25.38
2018-07-19T20:31:09.337Z,25.00
2018-07-19T20:33:14.823Z,25.00
2018-07-19T20:35:19.777Z,24.99
2018-07-19T20:37:24.283Z,24.87
2018-07-19T20:39:29.186Z,24.70
2018-07-19T20:41:33.958Z,24.65
2018-07-19T20:43:38.357Z,24.57
2018-07-19T20:45:43.264Z,24.72
2018-07-19T20:47:48.128Z,24.75
2018-07-19T20:49:53.083Z,24.50
2018-07-19T20:51:57.995Z,24.48
2018-07-19T20:54:02.816Z,24.36
2018-07-19T20:56:07.652Z,24.20
2018-07-19T20:58:12.403Z,24.32
2018-07-19T21:00:17.143Z,24.35
2018-07-19T21:02:21.832Z,24.01
2018-07-19T21:04:26.537Z,24.09
2018-07-19T21:06:31.313Z,23.89
2018-07-19T21:08:36.155Z,23.84
2018-07-19T21:10:40.905Z,23.74
2018-07-19T21:12:45.675Z,23.77
2018-07-19T21:14:50.377Z,23.71
2018-07-19T21:16:55.551Z,23.61
2018-07-19T21:19:00.383Z,23.57
2018-07-19T21:21:05.185Z,23.43
2018-07-19T21:23:09.931Z,23.33
2018-07-19T21:25:14.590Z,23.41
2018-07-19T21:27:19.294Z,23.42
2018-07-19T21:31:39.652Z,23.28
2018-07-19T21:33:44.394Z,23.14
2018-07-19T21:35:49.139Z,23.19
2018-07-19T21:37:53.885Z,23.11
2018-07-19T21:39:58.635Z,23.00
2018-07-19T21:42:02.968Z,23.03
2018-07-19T21:44:08.162Z,22.97
2018-07-19T21:46:13.017Z,22.87
2018-07-19T21:48:17.421Z,22.89
2018-07-19T21:50:22.225Z,22.81
2018-07-19T21:52:26.898Z,22.85
2018-07-19T21:54:31.604Z,22.75
2018-07-19T21:56:36.233Z,22.65
2018-07-19T21:58:40.572Z,22.75
2018-07-19T22:01:21.762Z,22.68
2018-07-19T22:03:26.569Z,22.57
2018-07-19T22:05:31.276Z,22.50
2018-07-19T22:07:35.984Z,22.44
2018-07-19T22:09:40.658Z,22.36
2018-07-19T22:11:45.410Z,22.32
2018-07-19T22:13:50.132Z,22.27
2018-07-19T22:15:54.964Z,22.28
2018-07-19T22:17:59.722Z,22.32
2018-07-19T22:20:04.205Z,22.18
2018-07-19T22:22:08.932Z,22.14
2018-07-19T22:24:13.619Z,22.11
2018-07-19T22:26:18.375Z,22.12
2018-07-19T22:28:23.052Z,22.02
2018-07-19T22:30:27.778Z,22.13
2018-07-19T22:32:32.512Z,22.04
2018-07-19T22:34:37.232Z,22.05
2018-07-19T22:36:41.955Z,21.90
2018-07-19T22:38:46.815Z,21.98
2018-07-19T22:40:51.527Z,21.82
2018-07-19T22:42:56.243Z,21.68
2018-07-19T22:45:00.897Z,21.63
2018-07-19T22:47:05.613Z,21.61
2018-07-19T22:49:10.338Z,21.61
2018-07-19T22:51:15.055Z,21.55
2018-07-19T22:53:19.749Z,21.57
2018-07-19T22:55:24.497Z,21.49
2018-07-19T22:57:29.532Z,21.35
2018-07-19T22:59:34.366Z,21.37
2018-07-19T23:01:39.107Z,21.38
2018-07-19T23:03:43.780Z,21.32
2018-07-19T23:05:48.545Z,21.27
2018-07-19T23:07:53.221Z,21.26
2018-07-19T23:09:57.886Z,21.17
2018-07-19T23:12:02.517Z,21.14
2018-07-19T23:14:07.285Z,21.07
2018-07-19T23:16:11.624Z,21.08
2018-07-19T23:18:16.291Z,21.14
2018-07-19T23:20:20.967Z,21.09
2018-07-19T23:22:25.726Z,20.99
2018-07-19T23:24:30.479Z,20.93
2018-07-19T23:26:35.241Z,20.89
2018-07-19T23:28:40.061Z,20.88
2018-07-19T23:30:44.764Z,20.90
2018-07-19T23:32:49.246Z,20.94
2018-07-19T23:34:54.186Z,20.83
2018-07-19T23:37:03.705Z,20.80
2018-07-19T23:39:12.472Z,20.88
2018-07-19T23:41:21.254Z,20.84
2018-07-19T23:43:30.999Z,20.80
2018-07-19T23:45:40.457Z,20.78
2018-07-19T23:47:45.769Z,20.73
2018-07-19T23:49:50.384Z,20.61
2018-07-19T23:51:55.094Z,20.60
2018-07-19T23:53:59.728Z,20.68
2018-07-19T23:56:04.442Z,20.66
2018-07-19T23:58:09.074Z,20.60
